Time;durP1;ratioP1;P1;durP2;ratioP2;P2;SDS_P1;SDS_P2;PMS_P1;PMS_P2;Temp;Humidity;BMP_temperature;BMP_pressure;BME280_temperature;BME280_humidity;BME280_pressure;Samples;Min_cycle;Max_cycle;Signal;HPM_P1;HPM_P2
2021/11/05 00:00:41;;;;;;;7.07;6.50;;;;;;;4.02;100.00;97841.06;5031192;28;20207;-72
2021/11/05 00:03:10;;;;;;;6.90;6.30;;;;;;;3.99;100.00;97831.66;4988501;28;20222;-70
2021/11/05 00:05:39;;;;;;;6.90;6.33;;;;;;;4.08;100.00;97834.47;5024020;28;20800;-72
2021/11/05 00:08:08;;;;;;;7.30;6.33;;;;;;;4.11;100.00;97839.47;5020785;28;20582;-70
2021/11/05 00:10:37;;;;;;;6.43;5.83;;;;;;;4.18;100.00;97840.63;5009378;28;20232;-72
2021/11/05 00:13:06;;;;;;;7.50;6.30;;;;;;;4.03;100.00;97845.34;5032039;28;20250;-70
2021/11/05 00:15:34;;;;;;;6.53;6.00;;;;;;;4.11;100.00;97847.34;5026946;28;20426;-71
2021/11/05 00:18:02;;;;;;;6.60;6.03;;;;;;;4.04;100.00;97847.84;5031143;28;20199;-71
2021/11/05 00:20:30;;;;;;;7.10;6.40;;;;;;;4.14;100.00;97852.31;4972372;28;20327;-73
2021/11/05 00:23:00;;;;;;;6.67;6.17;;;;;;;4.18;100.00;97854.59;4952928;28;20519;-71
2021/11/05 00:25:28;;;;;;;7.33;6.63;;;;;;;4.10;100.00;97864.03;4988045;28;20226;-71
2021/11/05 00:27:56;;;;;;;7.27;6.67;;;;;;;4.10;100.00;97871.91;5010750;28;20207;-72
2021/11/05 00:30:24;;;;;;;7.30;6.60;;;;;;;4.08;100.00;97861.53;5008402;28;20231;-71
2021/11/05 00:32:52;;;;;;;7.33;6.17;;;;;;;4.10;100.00;97864.03;5017980;28;20773;-71
2021/11/05 00:35:20;;;;;;;6.17;5.67;;;;;;;4.06;100.00;97855.56;5016663;28;20211;-72
2021/11/05 00:37:48;;;;;;;6.50;6.00;;;;;;;4.11;100.00;97857.81;4970235;28;20210;-71
2021/11/05 00:40:18;;;;;;;6.27;5.77;;;;;;;4.12;100.00;97859.50;5034253;28;20199;-71
2021/11/05 00:42:46;;;;;;;7.10;6.50;;;;;;;4.03;100.00;97859.28;5032534;28;21042;-73
2021/11/05 00:45:15;;;;;;;7.23;6.63;;;;;;;4.12;100.00;97865.56;5000118;28;20225;-71
2021/11/05 00:47:43;;;;;;;6.57;6.07;;;;;;;4.15;100.00;97867.91;5009531;28;20495;-71
2021/11/05 00:50:11;;;;;;;6.50;6.00;;;;;;;4.12;100.00;97880.47;5032478;28;20207;-71
2021/11/05 00:52:39;;;;;;;6.43;5.83;;;;;;;4.16;100.00;97874.81;4977742;28;21847;-76
2021/11/05 00:55:09;;;;;;;7.03;6.43;;;;;;;4.15;100.00;97880.22;5040040;28;21123;-74
2021/11/05 00:57:39;;;;;;;6.57;6.03;;;;;;;4.17;100.00;97884.38;5035287;28;20202;-76
2021/11/05 01:00:10;;;;;;;6.23;5.77;;;;;;;4.12;100.00;97883.09;5005171;28;20659;-75
2021/11/05 01:02:38;;;;;;;6.80;6.20;;;;;;;4.11;100.00;97877.00;5015415;28;20771;-76
2021/11/05 01:05:10;;;;;;;6.57;5.97;;;;;;;4.12;100.00;97890.97;5034814;28;20286;-76
2021/11/05 01:07:38;;;;;;;5.83;5.43;;;;;;;4.11;100.00;97889.28;5028729;28;20602;-75
2021/11/05 01:10:08;;;;;;;6.50;5.90;;;;;;;4.13;100.00;97890.81;4988848;28;20215;-75
2021/11/05 01:12:36;;;;;;;6.87;6.17;;;;;;;4.14;100.00;97894.28;5027346;28;20230;-76
2021/11/05 01:15:06;;;;;;;6.43;5.93;;;;;;;4.13;100.00;97892.63;4993205;28;24393;-76
2021/11/05 01:17:35;;;;;;;6.37;5.87;;;;;;;4.17;100.00;97891.41;5030473;28;20226;-76
2021/11/05 01:20:05;;;;;;;7.27;6.57;;;;;;;4.37;100.00;97891.56;5005265;28;20483;-75
2021/11/05 01:22:33;;;;;;;7.10;6.07;;;;;;;4.30;100.00;97894.69;5037834;28;20246;-75
2021/11/05 01:25:01;;;;;;;6.20;5.53;;;;;;;4.25;100.00;97891.59;4967938;28;20569;-74
2021/11/05 01:27:29;;;;;;;6.67;6.10;;;;;;;4.25;100.00;97901.28;5033792;28;20266;-74
2021/11/05 01:29:59;;;;;;;6.70;6.07;;;;;;;4.30;100.00;97897.31;5026382;28;20328;-74
2021/11/05 01:32:29;;;;;;;6.13;5.63;;;;;;;4.28;100.00;97893.97;5014697;28;20232;-74
2021/11/05 01:34:57;;;;;;;6.80;6.20;;;;;;;4.29;100.00;97902.69;5010815;28;20430;-76
2021/11/05 01:37:25;;;;;;;7.53;6.83;;;;;;;4.34;100.00;97911.84;5037159;28;20585;-75
2021/11/05 01:39:55;;;;;;;6.67;6.17;;;;;;;4.37;100.00;97909.94;4980619;28;20207;-77
2021/11/05 01:42:23;;;;;;;6.97;6.33;;;;;;;4.29;100.00;97900.88;5034134;28;20583;-72
2021/11/05 01:44:51;;;;;;;7.00;6.40;;;;;;;4.29;100.00;97900.06;5032367;28;20566;-71
2021/11/05 01:47:19;;;;;;;7.10;6.53;;;;;;;4.30;100.00;97902.56;4997492;28;20601;-70
2021/11/05 01:49:49;;;;;;;6.33;5.87;;;;;;;4.29;100.00;97905.31;5013144;28;20601;-71
2021/11/05 01:52:18;;;;;;;6.80;6.27;;;;;;;4.34;100.00;97906.59;5038249;28;20223;-71
2021/11/05 01:54:48;;;;;;;5.93;5.43;;;;;;;4.20;100.00;97912.16;4994559;28;20207;-70
2021/11/05 01:57:16;;;;;;;6.70;6.10;;;;;;;4.29;100.00;97906.13;5022855;28;20383;-71
2021/11/05 01:59:50;;;;;;;6.60;6.10;;;;;;;4.30;100.00;97909.59;5035196;28;20660;-71
2021/11/05 02:02:18;;;;;;;6.33;5.83;;;;;;;4.30;100.00;97914.84;5011367;28;20222;-71
2021/11/05 02:04:46;;;;;;;6.77;6.07;;;;;;;4.33;100.00;97917.22;4993983;28;20212;-71
2021/11/05 02:07:16;;;;;;;6.40;5.90;;;;;;;4.33;100.00;97915.41;5028572;28;20207;-72
2021/11/05 02:09:45;;;;;;;6.80;6.20;;;;;;;4.35;100.00;97913.50;5005025;28;20727;-71
2021/11/05 02:12:14;;;;;;;6.97;6.37;;;;;;;4.31;100.00;97913.91;5007035;28;20748;-72
2021/11/05 02:14:44;;;;;;;6.73;6.20;;;;;;;4.37;100.00;97913.38;5031442;28;20234;-70
2021/11/05 02:17:12;;;;;;;6.83;6.33;;;;;;;4.37;100.00;97918.63;5034904;28;20307;-72
2021/11/05 02:19:42;;;;;;;6.43;5.90;;;;;;;4.34;100.00;97919.69;4993468;28;20673;-71
2021/11/05 02:22:11;;;;;;;7.10;6.50;;;;;;;4.41;100.00;97920.03;5017782;28;20231;-70
2021/11/05 02:24:39;;;;;;;7.27;6.57;;;;;;;4.29;100.00;97919.25;5036877;28;20213;-70
2021/11/05 02:27:08;;;;;;;7.00;6.40;;;;;;;4.34;100.00;97921.50;4987225;28;21011;-72
2021/11/05 02:29:36;;;;;;;6.53;6.03;;;;;;;4.40;100.00;97920.19;4980088;28;20207;-72
2021/11/05 02:32:06;;;;;;;7.23;6.53;;;;;;;4.40;100.00;97921.00;5032815;28;20732;-70
2021/11/05 02:34:35;;;;;;;6.83;6.30;;;;;;;4.31;100.00;97925.19;5030684;28;20199;-71
2021/11/05 02:37:05;;;;;;;7.57;6.87;;;;;;;4.30;100.00;97930.59;5030927;28;20716;-72
2021/11/05 02:39:36;;;;;;;7.40;6.63;;;;;;;4.23;100.00;97938.13;5019292;28;20772;-75
2021/11/05 02:42:04;;;;;;;7.60;7.00;;;;;;;4.33;100.00;97944.28;5028447;28;20214;-73
2021/11/05 02:44:33;;;;;;;7.10;6.43;;;;;;;4.35;100.00;97939.72;4962942;28;20219;-71
2021/11/05 02:47:15;;;;;;;7.03;6.47;;;;;;;4.32;100.00;97953.09;5023384;28;20206;-70
2021/11/05 02:49:44;;;;;;;7.37;6.63;;;;;;;4.28;100.00;97945.63;5033976;28;20574;-71
2021/11/05 02:52:12;;;;;;;6.70;6.10;;;;;;;4.29;100.00;97949.91;5032775;28;20218;-72
2021/11/05 02:54:42;;;;;;;6.63;6.03;;;;;;;4.31;100.00;97948.00;5035981;28;20211;-70
2021/11/05 02:57:11;;;;;;;6.67;6.10;;;;;;;4.18;100.00;97958.66;5034484;28;20211;-71
2021/11/05 02:59:39;;;;;;;8.03;7.30;;;;;;;4.14;100.00;97954.63;5010227;28;20216;-71
2021/11/05 03:02:08;;;;;;;7.60;6.90;;;;;;;4.11;100.00;97958.31;4986054;28;20242;-70
2021/11/05 03:04:37;;;;;;;10.07;7.03;;;;;;;4.07;100.00;97961.31;5035073;28;20203;-71
2021/11/05 03:07:08;;;;;;;7.20;6.50;;;;;;;4.03;100.00;97964.19;5033146;28;20341;-70
2021/11/05 03:09:38;;;;;;;7.13;6.53;;;;;;;3.96;100.00;97970.84;5037138;28;20194;-71
2021/11/05 03:12:10;;;;;;;7.03;6.43;;;;;;;3.94;100.00;97972.78;5029121;28;20231;-70
2021/11/05 03:14:39;;;;;;;6.87;6.27;;;;;;;3.98;100.00;97976.84;5012322;28;20211;-70
2021/11/05 03:17:12;;;;;;;7.20;5.60;;;;;;;3.98;100.00;97976.84;4985307;28;20211;-70
2021/11/05 03:19:40;;;;;;;8.03;7.43;;;;;;;4.02;100.00;97980.03;5033263;28;20702;-71
2021/11/05 03:22:08;;;;;;;7.23;6.63;;;;;;;3.97;100.00;97980.38;5028426;28;20294;-70
2021/11/05 03:24:37;;;;;;;7.30;6.60;;;;;;;3.96;100.00;97986.59;5035390;28;20198;-71
2021/11/05 03:27:06;;;;;;;7.67;6.97;;;;;;;3.95;100.00;97987.53;5025580;28;20200;-70
2021/11/05 03:29:34;;;;;;;8.10;7.03;;;;;;;3.93;100.00;97994.69;5036503;28;20203;-71
2021/11/05 03:32:03;;;;;;;8.43;7.57;;;;;;;3.89;100.00;97990.66;4964472;28;20265;-70
2021/11/05 03:34:31;;;;;;;7.30;6.70;;;;;;;3.87;100.00;97997.81;4997784;28;21047;-71
2021/11/05 03:36:59;;;;;;;8.17;6.77;;;;;;;3.86;100.00;97999.63;5030249;28;20191;-72
2021/11/05 03:39:27;;;;;;;8.10;7.30;;;;;;;3.83;100.00;98007.72;5042176;22;20200;-75
2021/11/05 03:41:55;;;;;;;7.70;6.83;;;;;;;3.94;100.00;98006.03;5064241;22;20800;-77
2021/11/05 03:44:24;;;;;;;7.80;7.20;;;;;;;3.94;100.00;98014.72;5072275;28;20210;-75
2021/11/05 03:46:53;;;;;;;6.97;6.27;;;;;;;3.89;100.00;98017.72;5018714;28;20906;-76
2021/11/05 03:49:20;;;;;;;7.70;7.00;;;;;;;3.93;100.00;98018.31;5065472;28;20597;-76
2021/11/05 03:51:48;;;;;;;7.90;7.20;;;;;;;3.93;100.00;98020.91;5069288;28;20765;-75
2021/11/05 03:54:16;;;;;;;7.60;7.00;;;;;;;3.95;100.00;98031.31;5071264;28;20198;-76
2021/11/05 03:56:44;;;;;;;7.73;7.13;;;;;;;3.96;100.00;98032.97;5071234;28;20685;-74
2021/11/05 03:59:12;;;;;;;7.67;7.07;;;;;;;3.91;100.00;98034.16;5058869;28;20229;-76
2021/11/05 04:01:42;;;;;;;7.17;6.57;;;;;;;3.97;100.00;98038.06;5060554;28;20229;-73
2021/11/05 04:04:13;;;;;;;7.57;6.87;;;;;;;3.90;100.00;98043.00;5054143;28;20190;-77
2021/11/05 04:06:41;;;;;;;7.90;7.17;;;;;;;3.97;100.00;98045.13;5081300;28;20214;-74
2021/11/05 04:09:09;;;;;;;6.90;6.30;;;;;;;3.97;100.00;98050.38;5074968;28;20219;-77
2021/11/05 04:11:37;;;;;;;7.67;6.97;;;;;;;3.93;100.00;98044.53;5074418;28;20255;-74
2021/11/05 04:14:05;;;;;;;7.30;6.70;;;;;;;3.97;100.00;98051.19;5073539;28;20218;-77
2021/11/05 04:16:33;;;;;;;7.40;6.70;;;;;;;4.01;100.00;98057.03;5059006;28;20639;-74
2021/11/05 04:19:03;;;;;;;7.53;6.93;;;;;;;3.99;100.00;98056.31;5039000;28;20435;-76
2021/11/05 04:21:31;;;;;;;7.57;6.90;;;;;;;3.99;100.00;98062.41;5072457;28;20681;-74
2021/11/05 04:24:01;;;;;;;7.57;6.73;;;;;;;3.96;100.00;98057.38;5065717;28;21119;-76
2021/11/05 04:26:29;;;;;;;6.87;6.33;;;;;;;4.02;100.00;98062.19;5074184;28;20213;-74
2021/11/05 04:28:57;;;;;;;8.13;7.20;;;;;;;3.99;100.00;98064.19;5071095;28;20497;-76
2021/11/05 04:31:25;;;;;;;8.33;6.47;;;;;;;4.12;100.00;98064.06;5077764;28;20204;-77
2021/11/05 04:33:53;;;;;;;7.37;6.77;;;;;;;3.99;100.00;98059.81;5029415;28;21403;-77
2021/11/05 04:36:22;;;;;;;6.90;6.30;;;;;;;3.95;100.00;98058.34;5039708;28;20985;-73
2021/11/05 04:38:51;;;;;;;6.93;6.33;;;;;;;4.03;100.00;98065.63;5067281;28;20217;-77
2021/11/05 04:41:20;;;;;;;7.40;6.67;;;;;;;3.97;100.00;98061.69;5075968;28;20300;-74
2021/11/05 04:43:50;;;;;;;7.13;6.53;;;;;;;3.99;100.00;98058.94;5063867;28;20210;-77
2021/11/05 04:46:18;;;;;;;6.47;5.90;;;;;;;3.93;100.00;98064.69;5075089;28;20214;-74
2021/11/05 04:48:46;;;;;;;6.53;5.97;;;;;;;3.91;100.00;98070.03;5077362;28;20209;-77
2021/11/05 04:51:14;;;;;;;6.33;5.83;;;;;;;3.97;100.00;98072.16;5075673;28;20217;-74
2021/11/05 04:53:43;;;;;;;6.13;5.67;;;;;;;4.01;100.00;98068.38;5044827;28;20763;-77
2021/11/05 04:56:11;;;;;;;6.50;5.90;;;;;;;4.00;100.00;98078.97;5071822;28;20418;-74
2021/11/05 04:58:39;;;;;;;5.70;5.20;;;;;;;4.12;100.00;98071.94;5077430;28;20228;-77
2021/11/05 05:01:07;;;;;;;6.40;5.83;;;;;;;4.06;100.00;98075.88;5062947;28;20640;-77
2021/11/05 05:03:35;;;;;;;6.77;6.27;;;;;;;4.01;100.00;98073.63;5075729;28;20206;-77
2021/11/05 05:06:04;;;;;;;5.80;5.30;;;;;;;4.05;100.00;98072.44;5061606;28;20248;-75
2021/11/05 05:08:32;;;;;;;6.93;6.40;;;;;;;4.07;100.00;98077.53;5046487;28;20226;-77
2021/11/05 05:11:01;;;;;;;6.47;5.93;;;;;;;4.14;100.00;98077.91;5070561;28;20252;-72
2021/11/05 05:13:29;;;;;;;5.97;5.47;;;;;;;4.12;100.00;98082.44;5071448;28;20226;-75
2021/11/05 05:15:58;;;;;;;6.40;5.90;;;;;;;4.10;100.00;98084.34;5061478;28;20251;-71
2021/11/05 05:18:26;;;;;;;6.83;6.13;;;;;;;4.20;100.00;98087.91;5075419;28;20204;-72
2021/11/05 05:20:54;;;;;;;6.60;6.00;;;;;;;4.16;100.00;98083.84;5064962;28;20242;-73
2021/11/05 05:23:22;;;;;;;6.17;5.70;;;;;;;4.17;100.00;98094.25;5041669;28;20843;-74
2021/11/05 05:25:50;;;;;;;6.20;5.70;;;;;;;4.14;100.00;98093.63;5074599;28;20199;-72
2021/11/05 05:28:19;;;;;;;6.87;5.23;;;;;;;4.09;100.00;98093.16;5075504;28;20264;-72
2021/11/05 05:30:47;;;;;;;6.23;5.70;;;;;;;4.12;100.00;98093.75;5065146;28;20663;-72
2021/11/05 05:33:15;;;;;;;6.27;5.77;;;;;;;4.20;100.00;98109.72;5069723;28;20303;-75
2021/11/05 05:35:43;;;;;;;5.90;5.40;;;;;;;4.19;100.00;98110.69;5074487;28;20206;-74
2021/11/05 05:38:11;;;;;;;5.93;5.43;;;;;;;4.18;100.00;98114.25;5028374;28;22053;-73
2021/11/05 05:40:40;;;;;;;5.40;5.00;;;;;;;4.20;100.00;98116.75;5073258;28;20694;-77
2021/11/05 05:43:08;;;;;;;6.23;5.73;;;;;;;4.22;100.00;98114.03;5073951;28;20256;-77
2021/11/05 05:45:38;;;;;;;6.37;5.80;;;;;;;4.20;100.00;98122.00;5065665;28;20217;-76
2021/11/05 05:48:06;;;;;;;6.43;5.93;;;;;;;4.20;100.00;98128.09;5072398;28;20617;-74
2021/11/05 05:50:34;;;;;;;6.63;5.67;;;;;;;4.21;100.00;98131.53;5074210;28;20597;-76
2021/11/05 05:53:02;;;;;;;6.10;5.63;;;;;;;4.14;100.00;98135.59;5029919;28;20324;-73
2021/11/05 05:55:30;;;;;;;5.37;4.97;;;;;;;4.26;100.00;98137.25;5051889;28;20209;-73
2021/11/05 05:57:59;;;;;;;6.37;5.87;;;;;;;4.26;100.00;98142.50;5072962;28;20199;-76
2021/11/05 06:00:29;;;;;;;5.93;5.33;;;;;;;4.21;100.00;98152.53;5063150;28;20229;-73
2021/11/05 06:02:58;;;;;;;5.93;5.43;;;;;;;4.30;100.00;98154.41;5070601;28;21083;-76
2021/11/05 06:05:27;;;;;;;5.93;5.43;;;;;;;4.31;100.00;98152.66;5075821;28;20583;-73
2021/11/05 06:07:55;;;;;;;5.57;5.17;;;;;;;4.42;100.00;98157.88;5063359;28;20591;-76
2021/11/05 06:10:23;;;;;;;6.10;5.50;;;;;;;4.32;100.00;98160.38;5040243;28;20233;-73
2021/11/05 06:12:51;;;;;;;5.93;5.47;;;;;;;4.38;100.00;98166.94;5072775;28;20341;-77
2021/11/05 06:15:19;;;;;;;5.90;5.40;;;;;;;4.32;100.00;98170.88;5065373;28;20236;-77
2021/11/05 06:17:47;;;;;;;8.87;6.27;;;;;;;4.31;100.00;98168.38;5072777;28;20209;-76
2021/11/05 06:20:18;;;;;;;6.83;6.23;;;;;;;4.29;100.00;98181.59;5076955;28;20233;-77
2021/11/05 06:22:47;;;;;;;5.97;5.53;;;;;;;4.34;100.00;98181.25;5063325;28;20210;-77
2021/11/05 06:25:15;;;;;;;5.93;5.43;;;;;;;4.37;100.00;98185.44;5043120;28;20206;-77
2021/11/05 06:27:43;;;;;;;5.50;5.10;;;;;;;4.37;100.00;98190.69;5071825;28;20293;-74
2021/11/05 06:30:12;;;;;;;6.40;5.90;;;;;;;4.32;100.00;98193.66;5076704;28;20233;-76
2021/11/05 06:32:41;;;;;;;5.70;5.30;;;;;;;4.39;100.00;98201.91;5058741;28;20406;-76
2021/11/05 06:35:10;;;;;;;5.80;5.27;;;;;;;4.41;100.00;98206.06;5070970;28;20229;-76
2021/11/05 06:37:39;;;;;;;5.57;5.17;;;;;;;4.50;100.00;98215.03;5061696;28;20241;-77
2021/11/05 06:40:11;;;;;;;6.33;5.83;;;;;;;4.55;100.00;98212.88;5031900;28;20229;-72
2021/11/05 06:42:40;;;;;;;6.40;5.83;;;;;;;4.53;100.00;98222.66;5049081;28;20502;-73
2021/11/05 06:45:09;;;;;;;5.97;5.47;;;;;;;4.53;100.00;98225.28;5066471;28;20728;-75
2021/11/05 06:47:43;;;;;;;7.33;6.53;;;;;;;4.58;100.00;98232.81;5063173;28;20616;-73
2021/11/05 06:50:14;;;;;;;6.23;5.63;;;;;;;4.59;100.00;98239.72;5075766;28;20317;-78
2021/11/05 06:52:43;;;;;;;7.47;6.73;;;;;;;4.47;100.00;98244.13;5064809;28;20205;-74
2021/11/05 06:55:11;;;;;;;6.60;5.87;;;;;;;4.57;100.00;98244.25;5074201;28;20336;-75
2021/11/05 06:57:39;;;;;;;5.90;5.50;;;;;;;4.52;100.00;98246.38;5072017;28;20210;-74
2021/11/05 07:00:09;;;;;;;6.83;6.23;;;;;;;4.56;100.00;98260.97;5039968;28;20226;-76
2021/11/05 07:02:41;;;;;;;12.47;10.73;;;;;;;4.57;100.00;98258.19;5056234;28;20391;-77
2021/11/05 07:05:09;;;;;;;6.10;5.60;;;;;;;4.72;100.00;98265.81;5077390;28;20285;-74
2021/11/05 07:07:38;;;;;;;6.30;5.80;;;;;;;4.61;100.00;98270.13;5075032;28;20503;-77
2021/11/05 07:10:08;;;;;;;6.47;5.97;;;;;;;4.66;100.00;98276.81;5066061;28;20604;-77
2021/11/05 07:12:36;;;;;;;6.00;5.53;;;;;;;4.62;100.00;98277.06;5071575;28;20203;-76
2021/11/05 07:15:05;;;;;;;6.27;5.77;;;;;;;4.73;100.00;98275.38;5043137;28;20234;-77
2021/11/05 07:17:33;;;;;;;6.43;5.93;;;;;;;4.71;100.00;98287.78;5070256;28;20398;-74
2021/11/05 07:20:01;;;;;;;7.10;6.50;;;;;;;4.78;100.00;98289.81;5075760;28;20490;-77
2021/11/05 07:22:29;;;;;;;7.20;6.60;;;;;;;4.78;100.00;98299.50;5068528;28;20581;-77
2021/11/05 07:24:57;;;;;;;6.47;6.07;;;;;;;4.91;100.00;98288.84;5070638;28;20215;-77
2021/11/05 07:27:26;;;;;;;6.53;6.03;;;;;;;4.89;100.00;98306.53;5075480;28;20209;-72
2021/11/05 07:29:56;;;;;;;5.80;5.40;;;;;;;4.85;100.00;98305.09;5078793;28;20233;-76
2021/11/05 07:32:24;;;;;;;7.30;6.63;;;;;;;4.74;100.00;98309.41;5046379;28;20425;-72
2021/11/05 07:34:55;;;;;;;7.13;6.63;;;;;;;4.78;100.00;98307.38;5081315;28;20571;-76
2021/11/05 07:37:23;;;;;;;6.03;5.63;;;;;;;4.88;100.00;98317.97;5077303;28;20821;-72
2021/11/05 07:39:51;;;;;;;5.53;5.03;;;;;;;5.02;100.00;98323.00;5066992;28;20313;-78
2021/11/05 07:42:19;;;;;;;6.83;6.33;;;;;;;5.04;100.00;98330.75;5075357;28;20222;-74
2021/11/05 07:44:48;;;;;;;6.63;6.03;;;;;;;5.05;100.00;98335.03;5076183;28;20205;-78
2021/11/05 07:47:21;;;;;;;7.03;6.43;;;;;;;5.10;100.00;98337.31;5042933;28;20210;-74
2021/11/05 07:49:50;;;;;;;7.03;6.47;;;;;;;5.28;100.00;98345.53;5075501;28;20226;-78
2021/11/05 07:52:19;;;;;;;7.17;6.57;;;;;;;5.31;100.00;98340.03;5074705;28;20503;-74
2021/11/05 07:54:49;;;;;;;7.47;6.77;;;;;;;5.32;100.00;98346.97;5064953;28;20234;-77
2021/11/05 07:57:23;;;;;;;7.07;6.53;;;;;;;5.41;100.00;98351.50;5069461;28;20541;-74
2021/11/05 07:59:54;;;;;;;7.73;6.37;;;;;;;5.44;100.00;98350.41;5076042;28;20218;-79
2021/11/05 08:02:24;;;;;;;15.33;11.83;;;;;;;5.59;100.00;98348.34;5051944;28;20494;-73
2021/11/05 08:04:52;;;;;;;15.57;13.13;;;;;;;5.67;100.00;98361.72;5078818;28;20213;-77
2021/11/05 08:07:23;;;;;;;7.73;7.13;;;;;;;5.82;100.00;98366.69;5075142;28;20590;-75
2021/11/05 08:09:51;;;;;;;7.93;7.23;;;;;;;5.87;100.00;98357.47;5079069;28;20535;-78
2021/11/05 08:12:19;;;;;;;6.90;6.30;;;;;;;5.88;100.00;98369.66;5065654;28;20213;-75
2021/11/05 08:14:47;;;;;;;7.10;6.50;;;;;;;6.08;100.00;98373.31;5077756;28;20222;-77
2021/11/05 08:17:16;;;;;;;13.77;11.23;;;;;;;6.07;100.00;98379.56;5067872;28;20203;-73
2021/11/05 08:19:44;;;;;;;8.17;7.47;;;;;;;6.18;100.00;98386.56;5066152;28;20506;-78
2021/11/05 08:22:12;;;;;;;44.03;24.43;;;;;;;6.20;100.00;98389.06;5081190;28;20232;-73
2021/11/05 08:24:40;;;;;;;8.07;7.30;;;;;;;6.20;100.00;98400.44;5078073;28;20330;-78
2021/11/05 08:27:08;;;;;;;7.77;6.97;;;;;;;6.14;100.00;98402.72;5069858;28;20206;-73
2021/11/05 08:29:36;;;;;;;15.80;11.03;;;;;;;6.19;100.00;98400.53;5075817;28;20244;-78
2021/11/05 08:32:05;;;;;;;17.63;13.70;;;;;;;6.29;100.00;98398.84;5078660;28;20586;-77
2021/11/05 08:34:34;;;;;;;9.27;8.40;;;;;;;6.44;100.00;98412.53;5041198;28;20213;-77
2021/11/05 08:37:03;;;;;;;19.27;14.07;;;;;;;6.36;100.00;98415.81;5076065;28;20229;-77
2021/11/05 08:39:31;;;;;;;7.97;7.27;;;;;;;6.25;100.00;98418.50;5075009;28;20218;-78
2021/11/05 08:41:59;;;;;;;21.17;13.77;;;;;;;6.40;100.00;98424.25;5079176;28;20222;-76
2021/11/05 08:44:27;;;;;;;10.60;9.50;;;;;;;6.33;100.00;98421.31;5062018;28;20801;-75
2021/11/05 08:46:55;;;;;;;8.17;7.47;;;;;;;6.35;100.00;98429.94;5079710;28;20210;-78
2021/11/05 08:49:24;;;;;;;8.60;7.50;;;;;;;6.56;100.00;98425.66;5080259;28;20281;-76
2021/11/05 08:51:54;;;;;;;10.00;8.80;;;;;;;6.69;100.00;98430.72;5035279;28;20433;-77
2021/11/05 08:54:22;;;;;;;8.63;7.83;;;;;;;6.63;100.00;98435.53;5068303;28;20206;-76
2021/11/05 08:56:51;;;;;;;10.50;9.40;;;;;;;6.66;100.00;98437.06;5075455;28;20843;-74
2021/11/05 08:59:21;;;;;;;13.97;10.73;;;;;;;6.76;100.00;98442.41;5069487;28;20632;-75
2021/11/05 09:01:49;;;;;;;10.83;9.10;;;;;;;6.83;100.00;98432.22;5075262;28;20199;-73
2021/11/05 09:04:17;;;;;;;7.67;7.03;;;;;;;6.92;100.00;98440.16;5078445;28;20214;-77
2021/11/05 09:06:47;;;;;;;20.33;15.63;;;;;;;6.88;100.00;98436.09;5042465;28;20243;-76
2021/11/05 09:09:17;;;;;;;8.53;7.83;;;;;;;6.86;100.00;98450.38;5081185;28;20530;-75
2021/11/05 09:11:47;;;;;;;8.57;7.80;;;;;;;6.75;100.00;98448.66;5077384;28;20607;-74
2021/11/05 09:14:15;;;;;;;8.50;7.53;;;;;;;6.78;100.00;98451.84;5071132;28;20662;-77
2021/11/05 09:17:04;;;;;;;17.97;13.00;;;;;;;6.86;100.00;98456.47;5075436;28;20332;-78
2021/11/05 09:19:32;;;;;;;12.30;10.73;;;;;;;6.88;100.00;98461.63;5081645;28;20242;-75
2021/11/05 09:22:00;;;;;;;10.90;9.87;;;;;;;6.90;100.00;98463.16;5045609;28;20598;-78
2021/11/05 09:24:29;;;;;;;9.20;8.27;;;;;;;6.93;100.00;98470.78;5077622;28;20760;-78
2021/11/05 09:26:57;;;;;;;9.17;8.27;;;;;;;6.84;100.00;98476.84;5076886;28;20337;-78
2021/11/05 09:29:25;;;;;;;7.40;6.70;;;;;;;6.84;100.00;98476.84;5066056;28;20721;-77
2021/11/05 09:31:54;;;;;;;8.53;7.03;;;;;;;6.79;100.00;98479.03;5074919;28;20438;-77
2021/11/05 09:34:22;;;;;;;8.40;7.70;;;;;;;6.70;100.00;98485.06;5077376;28;20218;-75
2021/11/05 09:36:51;;;;;;;9.27;8.40;;;;;;;6.69;100.00;98478.94;5043674;28;20289;-73
2021/11/05 09:39:19;;;;;;;8.73;7.93;;;;;;;6.61;100.00;98494.56;5084736;28;20217;-77
2021/11/05 09:41:49;;;;;;;8.10;7.40;;;;;;;6.40;100.00;98492.72;5082677;28;20210;-73
2021/11/05 09:44:17;;;;;;;6.97;6.47;;;;;;;6.45;100.00;98497.63;5073945;28;20206;-77
2021/11/05 09:46:45;;;;;;;7.70;7.00;;;;;;;6.31;100.00;98502.22;5074830;28;20689;-74
2021/11/05 09:49:14;;;;;;;7.13;6.53;;;;;;;6.20;100.00;98510.13;5076583;28;20244;-77
2021/11/05 09:51:42;;;;;;;6.97;6.47;;;;;;;6.28;100.00;98502.47;5053674;28;20214;-74
2021/11/05 09:54:10;;;;;;;7.33;6.73;;;;;;;6.26;100.00;98514.91;5067760;28;20244;-77
2021/11/05 09:56:39;;;;;;;7.33;6.70;;;;;;;6.51;100.00;98512.91;5072141;28;20287;-74
2021/11/05 09:59:08;;;;;;;8.23;7.43;;;;;;;6.54;100.00;98519.72;5075713;28;20448;-76
2021/11/05 10:01:41;;;;;;;7.63;7.03;;;;;;;6.45;100.00;98524.78;5062876;28;20284;-74
2021/11/05 10:04:11;;;;;;;7.37;6.73;;;;;;;6.39;100.00;98527.06;5075715;28;20425;-77
2021/11/05 10:06:58;;;;;;;7.53;6.77;;;;;;;6.54;100.00;98528.44;5071510;28;20702;-72
2021/11/05 10:09:33;;;;;;;8.40;7.70;;;;;;;6.41;100.00;98533.88;5043176;28;20252;-73
2021/11/05 10:12:13;;;;;;;7.70;7.00;;;;;;;6.47;100.00;98537.81;5073083;28;20232;-79
2021/11/05 10:14:44;;;;;;;8.10;7.30;;;;;;;6.43;100.00;98546.94;5074759;28;20225;-76
2021/11/05 10:17:14;;;;;;;8.20;7.50;;;;;;;6.50;100.00;98540.19;5075522;28;20720;-77
2021/11/05 10:19:54;;;;;;;8.43;7.60;;;;;;;6.59;100.00;98534.19;5074831;28;20225;-73
2021/11/05 10:22:37;;;;;;;8.27;7.57;;;;;;;6.75;100.00;98538.22;5076604;28;20221;-75
2021/11/05 10:25:34;;;;;;;8.40;7.67;;;;;;;6.52;100.00;98548.81;5059762;28;20206;-76
2021/11/05 10:28:14;;;;;;;8.03;7.33;;;;;;;6.69;100.00;98543.97;5059548;28;20590;-76
2021/11/05 10:31:02;;;;;;;8.90;8.00;;;;;;;6.66;100.00;98553.81;5068664;28;20516;-72
2021/11/05 10:33:35;;;;;;;7.20;6.60;;;;;;;6.78;100.00;98544.03;5077272;28;20535;-74
2021/11/05 10:36:05;;;;;;;7.67;6.97;;;;;;;6.64;100.00;98539.09;5073179;28;20661;-76
2021/11/05 10:38:35;;;;;;;8.10;7.30;;;;;;;6.58;100.00;98550.94;5039435;28;20233;-72
2021/11/05 10:41:04;;;;;;;21.50;12.23;;;;;;;6.59;100.00;98549.16;5067463;28;20234;-76
2021/11/05 10:43:37;;;;;;;11.87;8.37;;;;;;;6.43;100.00;98544.28;5075809;28;20555;-76
2021/11/05 10:46:10;;;;;;;58.37;25.23;;;;;;;6.43;100.00;98557.47;5058184;28;20210;-77
2021/11/05 10:48:40;;;;;;;11.70;8.40;;;;;;;6.48;100.00;98550.03;5075978;28;20554;-72
2021/11/05 10:51:10;;;;;;;19.33;11.33;;;;;;;6.53;100.00;98558.38;5070740;28;20449;-77
2021/11/05 10:53:40;;;;;;;8.60;7.70;;;;;;;6.76;100.00;98560.94;5058930;28;20207;-72
2021/11/05 10:56:10;;;;;;;7.90;7.10;;;;;;;6.77;100.00;98552.09;5059263;28;20525;-76
2021/11/05 10:58:39;;;;;;;15.23;11.23;;;;;;;6.77;100.00;98558.19;5029013;28;20210;-75
2021/11/05 11:01:12;;;;;;;9.37;8.40;;;;;;;6.83;100.00;98567.38;5073601;28;20735;-72
2021/11/05 11:03:43;;;;;;;8.67;7.83;;;;;;;6.90;100.00;98563.28;5073665;28;20206;-75
2021/11/05 11:06:14;;;;;;;8.53;7.77;;;;;;;6.88;100.00;98564.38;5075075;28;20210;-72
2021/11/05 11:08:44;;;;;;;8.83;7.60;;;;;;;6.92;100.00;98568.44;5074349;28;20202;-75
2021/11/05 11:11:26;;;;;;;7.57;6.87;;;;;;;6.94;100.00;98575.22;5071392;28;20219;-73
2021/11/05 11:13:56;;;;;;;7.70;6.90;;;;;;;7.19;100.00;98567.94;5041828;28;20416;-73
2021/11/05 11:16:27;;;;;;;9.30;8.37;;;;;;;7.04;100.00;98570.03;5055067;28;21724;-76
2021/11/05 11:18:59;;;;;;;7.70;7.00;;;;;;;7.13;100.00;98568.44;5074911;28;20625;-74
2021/11/05 11:21:31;;;;;;;16.57;9.73;;;;;;;7.09;100.00;98574.94;5071885;28;20487;-76
2021/11/05 11:24:01;;;;;;;15.83;10.07;;;;;;;7.24;100.00;98575.47;5057668;28;20234;-72
2021/11/05 11:26:29;;;;;;;7.00;6.33;;;;;;;7.00;100.00;98575.69;5071177;28;20198;-71
2021/11/05 11:28:58;;;;;;;10.60;8.40;;;;;;;6.83;100.00;98580.56;5041916;28;20740;-73
2021/11/05 11:31:27;;;;;;;12.03;9.10;;;;;;;6.95;100.00;98581.34;5073295;28;20230;-72
2021/11/05 11:34:02;;;;;;;11.63;9.40;;;;;;;6.88;100.00;98577.56;5074436;28;20213;-73
2021/11/05 11:36:32;;;;;;;8.90;8.03;;;;;;;6.80;100.00;98583.44;5069723;28;20442;-72
2021/11/05 11:39:00;;;;;;;12.17;9.27;;;;;;;6.70;100.00;98590.44;5062562;28;20214;-71
2021/11/05 11:41:28;;;;;;;18.27;13.10;;;;;;;6.65;100.00;98583.75;5069471;28;20430;-75